Peshastin, WA

5:39 AM PDT on September 01, 2014 (GMT -0700)
Stampede Pass | Change Station
CLOSE
Current Station
Airport
Location: Stampede Pass,
Elevation: 3967 ft
Nearby Weather Stations

Elev 3967 ft 47.28 °N, 121.34 °W | Updated 1 day ago

Clear
Clear
56 °F
Feels Like 56 °F
N
5
Wind Variable Wind from WNW
Gusts 5 mph

Today
High -- | Low -- °F
--% Chance of Precip.
Yesterday
High -- | Low -- °F
Precip. -- in
6:21 AM 7:42 PM
Waxing Crescent, 40% visible
Pressure 29.95 in
Visibility 10.0 miles
Clouds Few 700 ft
Scattered Clouds 1200 ft
Mostly Cloudy 3800 ft
Dew Point 47 °F
Humidity 67%
Rainfall 0.00 in
Snow Depth 0 in , 0 in
UV 4 out of 12
Pollen 3.90 out of 12
Air Quality Not available.
Flu Activity Not available.
SPECI KSMP 302112Z AUTO VRB05KT 10SM FEW007 SCT012 BKN038 12/09 A2995 RMK AO2 T01170094 $

More Conditions Fewer Conditions

Pressure 29.95 in
Visibility 10.0 miles
Clouds Few 700 ft
Scattered Clouds 1200 ft
Mostly Cloudy 3800 ft
Dew Point 47 °F
Humidity 67%
Rainfall 0.00 in
Snow Depth 0 in , 0 in
UV 4 out of 12
Pollen 3.90 out of 12
Air Quality Not available.
Flu Activity Not available.
SPECI KSMP 302112Z AUTO VRB05KT 10SM FEW007 SCT012 BKN038 12/09 A2995 RMK AO2 T01170094 $

More Conditions Fewer Conditions

10-Day Weather Forecast

Almanac

Astronomy

Sep. 01, 2014 Rise Set
Actual Time 6:21 AM PDT 7:42 PM PDT
Civil Twilight 5:49 AM PDT 8:14 PM PDT
Nautical Twilight 5:10 AM PDT 8:52 PM PDT
Astronomical Twilight 4:29 AM PDT 9:34 PM PDT
Moon 1:40 PM PDT 11:18 PM PDT
Length of Visible Light 14h 25m
Length of Day
13h 21m
Tomorrow will be 3m 18s shorter.
Waxing Crescent, 40% of the Moon is Illuminated
Today
Waxing Crescent
Sep 2
First Quarter
Sep 8
Full
Sep 15
Last Quarter
Sep 24
New

Today's Extremes

State Highs State Lows

Community

WunderPhotos

Upload Photos

1,749,199 photos uploaded!

Nearby

Snow Depth

Station Depth Elevation
Blewett Pass 0 in 4270 ft
Grouse Camp 0 in 5380 ft
Upper Wheeler 0 in 4400 ft
Sasse Ridge 0 in 4200 ft
Stevens Pass 0 in 4070 ft

Earthquake Activity

City Distance Mag. Time & Date
No recent earthquake activity has been reported nearby.
Minimum magnitude displayed is 2.5.

Coastal Water Temperatures

Place Temperature
No Stations Reporting

Nearby Weather Stations